sensor_id;sensor_type;location;lat;lon;timestamp;P1;durP1;ratioP1;P2;durP2;ratioP2
41799;SDS011;27468;47.460;19.034;2023-06-10T00:01:43;6.30;;;3.90;;
41799;SDS011;27468;47.460;19.034;2023-06-10T00:04:12;7.18;;;4.05;;
41799;SDS011;27468;47.460;19.034;2023-06-10T00:06:41;7.13;;;4.10;;
41799;SDS011;27468;47.460;19.034;2023-06-10T00:09:10;7.72;;;4.18;;
41799;SDS011;27468;47.460;19.034;2023-06-10T00:11:36;6.82;;;3.70;;
41799;SDS011;27468;47.460;19.034;2023-06-10T00:14:02;7.53;;;4.25;;
41799;SDS011;27468;47.460;19.034;2023-06-10T00:16:28;7.55;;;4.20;;
41799;SDS011;27468;47.460;19.034;2023-06-10T00:18:53;7.03;;;4.38;;
41799;SDS011;27468;47.460;19.034;2023-06-10T00:21:21;6.35;;;3.70;;
41799;SDS011;27468;47.460;19.034;2023-06-10T00:23:46;6.55;;;3.92;;
41799;SDS011;27468;47.460;19.034;2023-06-10T00:26:12;6.53;;;4.05;;
41799;SDS011;27468;47.460;19.034;2023-06-10T00:28:37;6.50;;;4.05;;
41799;SDS011;27468;47.460;19.034;2023-06-10T00:31:03;6.80;;;3.88;;
41799;SDS011;27468;47.460;19.034;2023-06-10T00:33:29;6.57;;;3.80;;
41799;SDS011;27468;47.460;19.034;2023-06-10T00:35:55;7.25;;;4.20;;
41799;SDS011;27468;47.460;19.034;2023-06-10T00:38:20;6.90;;;3.97;;
41799;SDS011;27468;47.460;19.034;2023-06-10T00:40:45;7.10;;;3.95;;
41799;SDS011;27468;47.460;19.034;2023-06-10T00:43:11;5.93;;;3.85;;
41799;SDS011;27468;47.460;19.034;2023-06-10T00:45:36;7.35;;;3.70;;
41799;SDS011;27468;47.460;19.034;2023-06-10T00:48:02;7.82;;;4.22;;
41799;SDS011;27468;47.460;19.034;2023-06-10T00:50:29;6.88;;;4.20;;
41799;SDS011;27468;47.460;19.034;2023-06-10T00:52:56;7.90;;;4.38;;
41799;SDS011;27468;47.460;19.034;2023-06-10T00:55:22;7.05;;;3.63;;
41799;SDS011;27468;47.460;19.034;2023-06-10T00:57:48;6.38;;;3.90;;
41799;SDS011;27468;47.460;19.034;2023-06-10T01:00:16;5.15;;;3.45;;
41799;SDS011;27468;47.460;19.034;2023-06-10T01:02:42;6.07;;;3.30;;
41799;SDS011;27468;47.460;19.034;2023-06-10T01:05:07;6.28;;;3.70;;
41799;SDS011;27468;47.460;19.034;2023-06-10T01:07:43;6.13;;;3.47;;
41799;SDS011;27468;47.460;19.034;2023-06-10T01:10:19;6.15;;;3.80;;
41799;SDS011;27468;47.460;19.034;2023-06-10T01:15:21;6.40;;;3.72;;
41799;SDS011;27468;47.460;19.034;2023-06-10T01:18:03;5.40;;;3.60;;
41799;SDS011;27468;47.460;19.034;2023-06-10T01:20:33;6.63;;;3.55;;
41799;SDS011;27468;47.460;19.034;2023-06-10T01:23:00;6.18;;;3.35;;
41799;SDS011;27468;47.460;19.034;2023-06-10T01:25:28;6.03;;;3.40;;
41799;SDS011;27468;47.460;19.034;2023-06-10T01:27:55;5.30;;;3.25;;
41799;SDS011;27468;47.460;19.034;2023-06-10T01:30:32;5.55;;;3.50;;
41799;SDS011;27468;47.460;19.034;2023-06-10T01:33:07;6.90;;;3.55;;
41799;SDS011;27468;47.460;19.034;2023-06-10T01:35:36;7.20;;;3.35;;
41799;SDS011;27468;47.460;19.034;2023-06-10T01:38:03;5.85;;;3.58;;
41799;SDS011;27468;47.460;19.034;2023-06-10T01:40:29;5.90;;;3.47;;
41799;SDS011;27468;47.460;19.034;2023-06-10T01:42:55;5.10;;;3.08;;
41799;SDS011;27468;47.460;19.034;2023-06-10T01:45:20;4.72;;;3.45;;
41799;SDS011;27468;47.460;19.034;2023-06-10T01:47:46;5.22;;;3.50;;
41799;SDS011;27468;47.460;19.034;2023-06-10T01:50:11;6.00;;;3.40;;
41799;SDS011;27468;47.460;19.034;2023-06-10T01:52:37;5.38;;;3.25;;
41799;SDS011;27468;47.460;19.034;2023-06-10T01:55:03;5.25;;;3.17;;
41799;SDS011;27468;47.460;19.034;2023-06-10T01:57:29;4.65;;;3.00;;
41799;SDS011;27468;47.460;19.034;2023-06-10T01:59:54;6.72;;;3.97;;
41799;SDS011;27468;47.460;19.034;2023-06-10T02:02:20;5.25;;;3.53;;
41799;SDS011;27468;47.460;19.034;2023-06-10T02:04:47;7.50;;;3.20;;
41799;SDS011;27468;47.460;19.034;2023-06-10T02:07:12;5.68;;;3.65;;
41799;SDS011;27468;47.460;19.034;2023-06-10T02:09:37;5.45;;;3.50;;
41799;SDS011;27468;47.460;19.034;2023-06-10T02:12:03;5.50;;;3.33;;
41799;SDS011;27468;47.460;19.034;2023-06-10T02:14:29;5.72;;;3.05;;
41799;SDS011;27468;47.460;19.034;2023-06-10T02:16:54;5.00;;;3.15;;
41799;SDS011;27468;47.460;19.034;2023-06-10T02:19:21;5.05;;;3.15;;
41799;SDS011;27468;47.460;19.034;2023-06-10T02:21:48;6.85;;;3.40;;
41799;SDS011;27468;47.460;19.034;2023-06-10T02:24:14;6.47;;;3.58;;
41799;SDS011;27468;47.460;19.034;2023-06-10T02:26:40;6.22;;;3.38;;
41799;SDS011;27468;47.460;19.034;2023-06-10T02:29:05;7.20;;;3.90;;
41799;SDS011;27468;47.460;19.034;2023-06-10T02:31:31;5.72;;;3.20;;
41799;SDS011;27468;47.460;19.034;2023-06-10T02:33:57;7.63;;;3.08;;
41799;SDS011;27468;47.460;19.034;2023-06-10T02:36:22;7.85;;;3.70;;
41799;SDS011;27468;47.460;19.034;2023-06-10T02:38:49;5.75;;;3.40;;
41799;SDS011;27468;47.460;19.034;2023-06-10T02:41:15;6.57;;;3.70;;
41799;SDS011;27468;47.460;19.034;2023-06-10T02:43:40;6.15;;;3.55;;
41799;SDS011;27468;47.460;19.034;2023-06-10T02:46:05;6.03;;;3.92;;
41799;SDS011;27468;47.460;19.034;2023-06-10T02:48:31;6.05;;;3.20;;
41799;SDS011;27468;47.460;19.034;2023-06-10T02:50:56;5.15;;;3.40;;
41799;SDS011;27468;47.460;19.034;2023-06-10T02:53:22;7.80;;;3.60;;
41799;SDS011;27468;47.460;19.034;2023-06-10T02:55:47;6.00;;;3.17;;
41799;SDS011;27468;47.460;19.034;2023-06-10T02:58:12;6.57;;;3.60;;
41799;SDS011;27468;47.460;19.034;2023-06-10T03:00:38;6.47;;;3.95;;
41799;SDS011;27468;47.460;19.034;2023-06-10T03:03:05;7.43;;;3.97;;
41799;SDS011;27468;47.460;19.034;2023-06-10T03:05:30;6.55;;;3.42;;
41799;SDS011;27468;47.460;19.034;2023-06-10T03:07:56;5.85;;;3.42;;
41799;SDS011;27468;47.460;19.034;2023-06-10T03:10:21;5.95;;;3.83;;
41799;SDS011;27468;47.460;19.034;2023-06-10T03:12:47;6.75;;;3.83;;
41799;SDS011;27468;47.460;19.034;2023-06-10T03:15:12;6.00;;;3.28;;
41799;SDS011;27468;47.460;19.034;2023-06-10T03:17:38;6.38;;;3.85;;
41799;SDS011;27468;47.460;19.034;2023-06-10T03:20:03;6.05;;;3.50;;
41799;SDS011;27468;47.460;19.034;2023-06-10T03:22:30;6.25;;;3.42;;
41799;SDS011;27468;47.460;19.034;2023-06-10T03:24:56;6.63;;;3.72;;
41799;SDS011;27468;47.460;19.034;2023-06-10T03:27:22;7.57;;;3.88;;
41799;SDS011;27468;47.460;19.034;2023-06-10T03:29:47;8.38;;;3.78;;
41799;SDS011;27468;47.460;19.034;2023-06-10T03:32:13;6.20;;;3.78;;
41799;SDS011;27468;47.460;19.034;2023-06-10T03:34:38;6.57;;;4.00;;
41799;SDS011;27468;47.460;19.034;2023-06-10T03:37:05;7.22;;;3.97;;
41799;SDS011;27468;47.460;19.034;2023-06-10T03:39:30;6.20;;;4.07;;
41799;SDS011;27468;47.460;19.034;2023-06-10T03:41:56;5.57;;;3.80;;
41799;SDS011;27468;47.460;19.034;2023-06-10T03:44:24;5.75;;;3.65;;
41799;SDS011;27468;47.460;19.034;2023-06-10T03:46:56;5.97;;;3.88;;
41799;SDS011;27468;47.460;19.034;2023-06-10T03:49:22;6.38;;;3.78;;
41799;SDS011;27468;47.460;19.034;2023-06-10T03:51:52;7.85;;;3.85;;
41799;SDS011;27468;47.460;19.034;2023-06-10T03:54:18;6.72;;;3.33;;
41799;SDS011;27468;47.460;19.034;2023-06-10T03:56:43;6.32;;;3.50;;
41799;SDS011;27468;47.460;19.034;2023-06-10T03:59:09;4.95;;;3.72;;
41799;SDS011;27468;47.460;19.034;2023-06-10T04:01:34;4.45;;;3.03;;
41799;SDS011;27468;47.460;19.034;2023-06-10T04:04:02;4.38;;;2.95;;
41799;SDS011;27468;47.460;19.034;2023-06-10T04:06:28;4.63;;;2.97;;
41799;SDS011;27468;47.460;19.034;2023-06-10T04:08:54;4.45;;;3.03;;
41799;SDS011;27468;47.460;19.034;2023-06-10T04:11:21;6.70;;;2.80;;
41799;SDS011;27468;47.460;19.034;2023-06-10T04:13:48;4.35;;;2.65;;
41799;SDS011;27468;47.460;19.034;2023-06-10T04:16:14;3.70;;;2.25;;
41799;SDS011;27468;47.460;19.034;2023-06-10T04:18:39;5.53;;;2.90;;
41799;SDS011;27468;47.460;19.034;2023-06-10T04:21:04;4.03;;;2.55;;
41799;SDS011;27468;47.460;19.034;2023-06-10T04:23:30;3.67;;;2.80;;
41799;SDS011;27468;47.460;19.034;2023-06-10T04:25:55;3.67;;;2.90;;
41799;SDS011;27468;47.460;19.034;2023-06-10T04:28:21;3.20;;;2.47;;
41799;SDS011;27468;47.460;19.034;2023-06-10T04:30:46;3.25;;;2.30;;
41799;SDS011;27468;47.460;19.034;2023-06-10T04:33:12;3.80;;;2.63;;
41799;SDS011;27468;47.460;19.034;2023-06-10T04:35:37;4.20;;;2.63;;
41799;SDS011;27468;47.460;19.034;2023-06-10T04:38:02;3.38;;;2.58;;
41799;SDS011;27468;47.460;19.034;2023-06-10T04:40:28;3.75;;;2.47;;
41799;SDS011;27468;47.460;19.034;2023-06-10T04:42:53;4.50;;;2.70;;
41799;SDS011;27468;47.460;19.034;2023-06-10T04:45:19;3.55;;;2.70;;
41799;SDS011;27468;47.460;19.034;2023-06-10T04:47:44;3.78;;;2.80;;
41799;SDS011;27468;47.460;19.034;2023-06-10T04:50:10;3.80;;;2.80;;
41799;SDS011;27468;47.460;19.034;2023-06-10T04:52:35;4.22;;;2.95;;
41799;SDS011;27468;47.460;19.034;2023-06-10T04:55:00;3.20;;;2.50;;
41799;SDS011;27468;47.460;19.034;2023-06-10T04:57:26;5.43;;;2.90;;
41799;SDS011;27468;47.460;19.034;2023-06-10T04:59:52;3.67;;;2.80;;
41799;SDS011;27468;47.460;19.034;2023-06-10T05:02:18;3.17;;;2.72;;
41799;SDS011;27468;47.460;19.034;2023-06-10T05:04:43;3.45;;;2.72;;
41799;SDS011;27468;47.460;19.034;2023-06-10T05:07:08;4.72;;;2.70;;
41799;SDS011;27468;47.460;19.034;2023-06-10T05:09:34;5.53;;;2.58;;
41799;SDS011;27468;47.460;19.034;2023-06-10T05:11:59;3.03;;;2.40;;
41799;SDS011;27468;47.460;19.034;2023-06-10T05:14:25;3.67;;;2.60;;
41799;SDS011;27468;47.460;19.034;2023-06-10T05:16:50;5.20;;;2.28;;
41799;SDS011;27468;47.460;19.034;2023-06-10T05:19:16;3.80;;;2.25;;
41799;SDS011;27468;47.460;19.034;2023-06-10T05:21:42;2.55;;;1.98;;
41799;SDS011;27468;47.460;19.034;2023-06-10T05:24:07;2.45;;;2.05;;
41799;SDS011;27468;47.460;19.034;2023-06-10T05:26:34;3.60;;;2.13;;
41799;SDS011;27468;47.460;19.034;2023-06-10T05:29:02;3.30;;;2.42;;
41799;SDS011;27468;47.460;19.034;2023-06-10T05:31:29;2.80;;;2.00;;
41799;SDS011;27468;47.460;19.034;2023-06-10T05:33:54;3.22;;;2.30;;
41799;SDS011;27468;47.460;19.034;2023-06-10T05:36:20;3.47;;;2.28;;
41799;SDS011;27468;47.460;19.034;2023-06-10T05:38:46;3.88;;;2.28;;
41799;SDS011;27468;47.460;19.034;2023-06-10T05:41:11;2.67;;;2.05;;
41799;SDS011;27468;47.460;19.034;2023-06-10T05:43:37;2.22;;;2.03;;
41799;SDS011;27468;47.460;19.034;2023-06-10T05:46:02;2.53;;;2.00;;
41799;SDS011;27468;47.460;19.034;2023-06-10T05:48:28;1.83;;;1.73;;
41799;SDS011;27468;47.460;19.034;2023-06-10T05:50:53;3.05;;;1.80;;
41799;SDS011;27468;47.460;19.034;2023-06-10T05:53:19;2.40;;;1.60;;
41799;SDS011;27468;47.460;19.034;2023-06-10T05:55:44;2.85;;;2.08;;
41799;SDS011;27468;47.460;19.034;2023-06-10T05:58:11;1.90;;;1.70;;
41799;SDS011;27468;47.460;19.034;2023-06-10T06:00:40;3.72;;;1.77;;
41799;SDS011;27468;47.460;19.034;2023-06-10T06:03:07;2.53;;;1.95;;
41799;SDS011;27468;47.460;19.034;2023-06-10T06:05:36;2.42;;;1.65;;
41799;SDS011;27468;47.460;19.034;2023-06-10T06:08:06;2.25;;;1.80;;
41799;SDS011;27468;47.460;19.034;2023-06-10T06:10:32;2.92;;;1.80;;
41799;SDS011;27468;47.460;19.034;2023-06-10T06:12:58;2.25;;;1.80;;
41799;SDS011;27468;47.460;19.034;2023-06-10T06:15:23;2.83;;;1.70;;
41799;SDS011;27468;47.460;19.034;2023-06-10T06:17:49;2.17;;;1.80;;
41799;SDS011;27468;47.460;19.034;2023-06-10T06:20:17;2.38;;;1.85;;
41799;SDS011;27468;47.460;19.034;2023-06-10T06:22:43;1.70;;;1.60;;
41799;SDS011;27468;47.460;19.034;2023-06-10T06:25:08;3.90;;;1.85;;
41799;SDS011;27468;47.460;19.034;2023-06-10T06:27:34;2.33;;;1.75;;
41799;SDS011;27468;47.460;19.034;2023-06-10T06:29:59;1.95;;;1.52;;
41799;SDS011;27468;47.460;19.034;2023-06-10T06:32:25;3.33;;;2.10;;
41799;SDS011;27468;47.460;19.034;2023-06-10T06:34:52;3.38;;;2.33;;
41799;SDS011;27468;47.460;19.034;2023-06-10T06:37:22;2.47;;;2.15;;
41799;SDS011;27468;47.460;19.034;2023-06-10T06:39:52;2.85;;;1.73;;
41799;SDS011;27468;47.460;19.034;2023-06-10T06:42:19;2.95;;;1.83;;
41799;SDS011;27468;47.460;19.034;2023-06-10T06:44:46;2.78;;;2.25;;
41799;SDS011;27468;47.460;19.034;2023-06-10T06:47:11;3.47;;;2.05;;
41799;SDS011;27468;47.460;19.034;2023-06-10T06:49:37;2.67;;;1.90;;
41799;SDS011;27468;47.460;19.034;2023-06-10T06:52:03;3.13;;;2.13;;
41799;SDS011;27468;47.460;19.034;2023-06-10T06:54:28;3.28;;;2.30;;
41799;SDS011;27468;47.460;19.034;2023-06-10T06:56:54;2.83;;;2.20;;
41799;SDS011;27468;47.460;19.034;2023-06-10T06:59:19;2.65;;;2.10;;
41799;SDS011;27468;47.460;19.034;2023-06-10T07:01:45;3.30;;;2.72;;
41799;SDS011;27468;47.460;19.034;2023-06-10T07:04:11;2.80;;;2.50;;
41799;SDS011;27468;47.460;19.034;2023-06-10T07:06:37;3.67;;;2.45;;
41799;SDS011;27468;47.460;19.034;2023-06-10T07:09:03;3.65;;;2.40;;
41799;SDS011;27468;47.460;19.034;2023-06-10T07:11:29;2.55;;;2.35;;
41799;SDS011;27468;47.460;19.034;2023-06-10T07:13:55;3.53;;;2.80;;
41799;SDS011;27468;47.460;19.034;2023-06-10T07:16:20;3.60;;;2.80;;
41799;SDS011;27468;47.460;19.034;2023-06-10T07:18:46;5.93;;;2.72;;
41799;SDS011;27468;47.460;19.034;2023-06-10T07:21:11;11.38;;;2.95;;
41799;SDS011;27468;47.460;19.034;2023-06-10T07:23:37;4.15;;;2.70;;
41799;SDS011;27468;47.460;19.034;2023-06-10T07:26:02;4.63;;;2.70;;
41799;SDS011;27468;47.460;19.034;2023-06-10T07:28:28;3.20;;;2.50;;
41799;SDS011;27468;47.460;19.034;2023-06-10T07:30:53;3.03;;;2.38;;
41799;SDS011;27468;47.460;19.034;2023-06-10T07:33:19;3.67;;;2.55;;
41799;SDS011;27468;47.460;19.034;2023-06-10T07:35:44;4.30;;;2.88;;
41799;SDS011;27468;47.460;19.034;2023-06-10T07:38:09;4.00;;;2.75;;
41799;SDS011;27468;47.460;19.034;2023-06-10T07:40:35;3.50;;;2.90;;
41799;SDS011;27468;47.460;19.034;2023-06-10T07:43:00;4.15;;;2.90;;
41799;SDS011;27468;47.460;19.034;2023-06-10T07:45:26;3.15;;;2.75;;
41799;SDS011;27468;47.460;19.034;2023-06-10T07:47:51;3.30;;;2.55;;
41799;SDS011;27468;47.460;19.034;2023-06-10T07:50:17;3.55;;;2.90;;
41799;SDS011;27468;47.460;19.034;2023-06-10T07:52:42;3.75;;;2.97;;
41799;SDS011;27468;47.460;19.034;2023-06-10T07:55:08;5.95;;;2.92;;
41799;SDS011;27468;47.460;19.034;2023-06-10T07:57:33;4.15;;;2.95;;
41799;SDS011;27468;47.460;19.034;2023-06-10T08:00:01;4.63;;;3.25;;
41799;SDS011;27468;47.460;19.034;2023-06-10T08:02:29;4.40;;;2.80;;
41799;SDS011;27468;47.460;19.034;2023-06-10T08:04:55;3.75;;;3.03;;
41799;SDS011;27468;47.460;19.034;2023-06-10T08:07:21;3.35;;;2.85;;
41799;SDS011;27468;47.460;19.034;2023-06-10T08:09:47;4.90;;;2.72;;
41799;SDS011;27468;47.460;19.034;2023-06-10T08:12:12;3.30;;;2.78;;
41799;SDS011;27468;47.460;19.034;2023-06-10T08:14:38;3.05;;;2.42;;
41799;SDS011;27468;47.460;19.034;2023-06-10T08:17:04;3.45;;;2.75;;
41799;SDS011;27468;47.460;19.034;2023-06-10T08:19:30;4.85;;;2.70;;
41799;SDS011;27468;47.460;19.034;2023-06-10T08:21:56;3.45;;;2.60;;
41799;SDS011;27468;47.460;19.034;2023-06-10T08:24:22;4.50;;;3.50;;
41799;SDS011;27468;47.460;19.034;2023-06-10T08:26:47;5.85;;;2.92;;
41799;SDS011;27468;47.460;19.034;2023-06-10T08:29:12;4.40;;;3.42;;
41799;SDS011;27468;47.460;19.034;2023-06-10T08:31:41;4.05;;;3.30;;
41799;SDS011;27468;47.460;19.034;2023-06-10T08:34:07;3.85;;;3.45;;
41799;SDS011;27468;47.460;19.034;2023-06-10T08:36:33;4.43;;;3.17;;
41799;SDS011;27468;47.460;19.034;2023-06-10T08:38:58;4.20;;;3.28;;
41799;SDS011;27468;47.460;19.034;2023-06-10T08:41:24;3.67;;;3.25;;
41799;SDS011;27468;47.460;19.034;2023-06-10T08:44:02;3.85;;;3.13;;
41799;SDS011;27468;47.460;19.034;2023-06-10T08:46:33;4.22;;;3.50;;
41799;SDS011;27468;47.460;19.034;2023-06-10T08:49:01;3.90;;;3.33;;
41799;SDS011;27468;47.460;19.034;2023-06-10T08:51:32;4.10;;;2.83;;
41799;SDS011;27468;47.460;19.034;2023-06-10T08:54:08;4.10;;;3.45;;
41799;SDS011;27468;47.460;19.034;2023-06-10T08:56:50;5.18;;;3.88;;
41799;SDS011;27468;47.460;19.034;2023-06-10T08:59:16;4.10;;;3.70;;
41799;SDS011;27468;47.460;19.034;2023-06-10T09:01:42;5.28;;;3.70;;
41799;SDS011;27468;47.460;19.034;2023-06-10T09:04:08;4.38;;;3.40;;
41799;SDS011;27468;47.460;19.034;2023-06-10T09:06:34;4.43;;;3.63;;
41799;SDS011;27468;47.460;19.034;2023-06-10T09:09:01;3.83;;;3.42;;
41799;SDS011;27468;47.460;19.034;2023-06-10T09:11:27;5.13;;;3.83;;
41799;SDS011;27468;47.460;19.034;2023-06-10T09:13:53;5.28;;;4.15;;
41799;SDS011;27468;47.460;19.034;2023-06-10T09:16:18;4.68;;;3.92;;
41799;SDS011;27468;47.460;19.034;2023-06-10T09:18:44;4.45;;;3.70;;
41799;SDS011;27468;47.460;19.034;2023-06-10T09:21:10;4.72;;;3.75;;
41799;SDS011;27468;47.460;19.034;2023-06-10T09:23:36;5.43;;;4.07;;
41799;SDS011;27468;47.460;19.034;2023-06-10T09:26:02;5.18;;;3.80;;
41799;SDS011;27468;47.460;19.034;2023-06-10T09:28:32;5.97;;;4.82;;
41799;SDS011;27468;47.460;19.034;2023-06-10T09:31:02;5.63;;;4.05;;
41799;SDS011;27468;47.460;19.034;2023-06-10T09:33:32;5.15;;;3.83;;
41799;SDS011;27468;47.460;19.034;2023-06-10T09:35:57;5.45;;;4.75;;
41799;SDS011;27468;47.460;19.034;2023-06-10T09:38:29;6.72;;;5.35;;
41799;SDS011;27468;47.460;19.034;2023-06-10T09:40:56;5.82;;;4.68;;
41799;SDS011;27468;47.460;19.034;2023-06-10T09:43:22;5.20;;;4.13;;
41799;SDS011;27468;47.460;19.034;2023-06-10T09:45:50;6.50;;;4.53;;
41799;SDS011;27468;47.460;19.034;2023-06-10T09:48:18;5.85;;;4.43;;
41799;SDS011;27468;47.460;19.034;2023-06-10T09:50:43;6.88;;;4.60;;
41799;SDS011;27468;47.460;19.034;2023-06-10T09:53:10;5.22;;;4.40;;
41799;SDS011;27468;47.460;19.034;2023-06-10T09:55:39;7.15;;;5.70;;
41799;SDS011;27468;47.460;19.034;2023-06-10T09:58:06;6.47;;;5.40;;
41799;SDS011;27468;47.460;19.034;2023-06-10T10:00:32;8.35;;;5.10;;
41799;SDS011;27468;47.460;19.034;2023-06-10T10:02:58;5.80;;;4.60;;
41799;SDS011;27468;47.460;19.034;2023-06-10T10:05:25;7.85;;;5.20;;
41799;SDS011;27468;47.460;19.034;2023-06-10T10:07:51;7.30;;;5.63;;
41799;SDS011;27468;47.460;19.034;2023-06-10T10:10:19;9.02;;;6.30;;
41799;SDS011;27468;47.460;19.034;2023-06-10T10:12:50;8.10;;;5.32;;
41799;SDS011;27468;47.460;19.034;2023-06-10T10:15:21;8.85;;;6.53;;
41799;SDS011;27468;47.460;19.034;2023-06-10T10:20:33;7.90;;;5.90;;
41799;SDS011;27468;47.460;19.034;2023-06-10T10:23:01;10.13;;;6.57;;
41799;SDS011;27468;47.460;19.034;2023-06-10T10:25:29;8.10;;;5.43;;
41799;SDS011;27468;47.460;19.034;2023-06-10T10:28:09;8.70;;;5.78;;
41799;SDS011;27468;47.460;19.034;2023-06-10T10:30:40;6.47;;;5.20;;
41799;SDS011;27468;47.460;19.034;2023-06-10T10:33:16;7.43;;;5.50;;
41799;SDS011;27468;47.460;19.034;2023-06-10T10:35:45;8.30;;;5.80;;
41799;SDS011;27468;47.460;19.034;2023-06-10T10:38:11;7.13;;;5.82;;
41799;SDS011;27468;47.460;19.034;2023-06-10T10:40:37;9.10;;;6.07;;
41799;SDS011;27468;47.460;19.034;2023-06-10T10:43:04;7.90;;;5.75;;
41799;SDS011;27468;47.460;19.034;2023-06-10T10:45:31;6.53;;;5.22;;
41799;SDS011;27468;47.460;19.034;2023-06-10T10:47:58;7.10;;;5.13;;
41799;SDS011;27468;47.460;19.034;2023-06-10T10:50:30;6.85;;;5.20;;
41799;SDS011;27468;47.460;19.034;2023-06-10T10:52:58;7.38;;;5.60;;
41799;SDS011;27468;47.460;19.034;2023-06-10T10:55:25;6.15;;;5.00;;
41799;SDS011;27468;47.460;19.034;2023-06-10T10:57:56;8.02;;;5.82;;
41799;SDS011;27468;47.460;19.034;2023-06-10T11:00:47;7.88;;;6.03;;
41799;SDS011;27468;47.460;19.034;2023-06-10T11:03:14;7.25;;;5.13;;
41799;SDS011;27468;47.460;19.034;2023-06-10T11:05:42;8.57;;;6.10;;
41799;SDS011;27468;47.460;19.034;2023-06-10T11:08:12;8.00;;;6.07;;
41799;SDS011;27468;47.460;19.034;2023-06-10T11:10:51;7.55;;;5.78;;
41799;SDS011;27468;47.460;19.034;2023-06-10T11:13:20;7.00;;;5.60;;
41799;SDS011;27468;47.460;19.034;2023-06-10T11:15:47;7.53;;;5.82;;
41799;SDS011;27468;47.460;19.034;2023-06-10T11:18:15;8.23;;;6.30;;
41799;SDS011;27468;47.460;19.034;2023-06-10T11:25:51;8.88;;;6.70;;
41799;SDS011;27468;47.460;19.034;2023-06-10T11:28:34;7.68;;;6.30;;
41799;SDS011;27468;47.460;19.034;2023-06-10T11:30:59;7.70;;;6.13;;
41799;SDS011;27468;47.460;19.034;2023-06-10T11:33:24;9.10;;;6.55;;
41799;SDS011;27468;47.460;19.034;2023-06-10T11:35:50;7.35;;;6.28;;
41799;SDS011;27468;47.460;19.034;2023-06-10T11:38:15;9.52;;;7.05;;
41799;SDS011;27468;47.460;19.034;2023-06-10T11:40:45;9.70;;;6.47;;
41799;SDS011;27468;47.460;19.034;2023-06-10T11:43:17;8.25;;;6.53;;
41799;SDS011;27468;47.460;19.034;2023-06-10T11:45:43;7.35;;;6.55;;
41799;SDS011;27468;47.460;19.034;2023-06-10T11:48:09;7.20;;;6.05;;
41799;SDS011;27468;47.460;19.034;2023-06-10T11:50:35;8.50;;;6.72;;
41799;SDS011;27468;47.460;19.034;2023-06-10T11:53:02;10.27;;;7.15;;
41799;SDS011;27468;47.460;19.034;2023-06-10T12:00:47;7.80;;;6.32;;
41799;SDS011;27468;47.460;19.034;2023-06-10T12:03:17;6.72;;;5.80;;
41799;SDS011;27468;47.460;19.034;2023-06-10T12:05:58;8.10;;;5.70;;
41799;SDS011;27468;47.460;19.034;2023-06-10T12:08:25;7.43;;;5.80;;
41799;SDS011;27468;47.460;19.034;2023-06-10T12:10:51;8.10;;;6.55;;
41799;SDS011;27468;47.460;19.034;2023-06-10T12:13:17;8.38;;;6.30;;
41799;SDS011;27468;47.460;19.034;2023-06-10T12:15:45;8.27;;;6.55;;
41799;SDS011;27468;47.460;19.034;2023-06-10T12:18:18;9.50;;;6.85;;
41799;SDS011;27468;47.460;19.034;2023-06-10T12:20:48;9.05;;;7.00;;
41799;SDS011;27468;47.460;19.034;2023-06-10T12:23:15;8.05;;;6.65;;
41799;SDS011;27468;47.460;19.034;2023-06-10T12:25:51;7.15;;;5.25;;
41799;SDS011;27468;47.460;19.034;2023-06-10T12:28:23;6.55;;;4.65;;
41799;SDS011;27468;47.460;19.034;2023-06-10T12:30:49;8.25;;;5.82;;
41799;SDS011;27468;47.460;19.034;2023-06-10T12:33:15;11.48;;;5.13;;
41799;SDS011;27468;47.460;19.034;2023-06-10T12:35:48;6.10;;;4.90;;
41799;SDS011;27468;47.460;19.034;2023-06-10T12:38:17;5.72;;;4.57;;
41799;SDS011;27468;47.460;19.034;2023-06-10T12:40:46;5.00;;;3.83;;
41799;SDS011;27468;47.460;19.034;2023-06-10T12:43:12;5.57;;;4.22;;
41799;SDS011;27468;47.460;19.034;2023-06-10T12:45:38;5.68;;;4.63;;
41799;SDS011;27468;47.460;19.034;2023-06-10T12:48:12;4.53;;;3.92;;
41799;SDS011;27468;47.460;19.034;2023-06-10T12:50:43;4.75;;;3.80;;
41799;SDS011;27468;47.460;19.034;2023-06-10T12:53:09;3.83;;;3.38;;
41799;SDS011;27468;47.460;19.034;2023-06-10T12:55:38;4.95;;;3.60;;
41799;SDS011;27468;47.460;19.034;2023-06-10T12:58:04;4.55;;;3.63;;
41799;SDS011;27468;47.460;19.034;2023-06-10T13:00:30;4.32;;;3.60;;
41799;SDS011;27468;47.460;19.034;2023-06-10T13:02:56;4.35;;;3.65;;
41799;SDS011;27468;47.460;19.034;2023-06-10T13:05:21;3.25;;;2.92;;
41799;SDS011;27468;47.460;19.034;2023-06-10T13:07:47;3.20;;;2.67;;
41799;SDS011;27468;47.460;19.034;2023-06-10T13:10:13;2.50;;;1.85;;
41799;SDS011;27468;47.460;19.034;2023-06-10T13:12:40;3.40;;;2.53;;
41799;SDS011;27468;47.460;19.034;2023-06-10T13:15:06;2.35;;;1.73;;
41799;SDS011;27468;47.460;19.034;2023-06-10T13:17:31;2.65;;;2.20;;
41799;SDS011;27468;47.460;19.034;2023-06-10T13:19:59;2.42;;;2.10;;
41799;SDS011;27468;47.460;19.034;2023-06-10T13:22:24;3.17;;;2.08;;
41799;SDS011;27468;47.460;19.034;2023-06-10T13:24:51;2.75;;;2.50;;
41799;SDS011;27468;47.460;19.034;2023-06-10T13:27:17;3.35;;;2.45;;
41799;SDS011;27468;47.460;19.034;2023-06-10T13:29:42;2.85;;;2.05;;
41799;SDS011;27468;47.460;19.034;2023-06-10T13:32:08;2.40;;;2.17;;
41799;SDS011;27468;47.460;19.034;2023-06-10T13:34:33;2.17;;;1.83;;
41799;SDS011;27468;47.460;19.034;2023-06-10T13:36:58;2.75;;;2.00;;
41799;SDS011;27468;47.460;19.034;2023-06-10T13:39:24;2.53;;;1.90;;
41799;SDS011;27468;47.460;19.034;2023-06-10T13:41:49;3.05;;;2.25;;
41799;SDS011;27468;47.460;19.034;2023-06-10T13:44:15;3.25;;;2.13;;
41799;SDS011;27468;47.460;19.034;2023-06-10T13:46:40;2.58;;;2.38;;
41799;SDS011;27468;47.460;19.034;2023-06-10T13:49:06;3.33;;;1.98;;
41799;SDS011;27468;47.460;19.034;2023-06-10T13:51:31;2.60;;;2.08;;
41799;SDS011;27468;47.460;19.034;2023-06-10T13:53:56;2.58;;;2.20;;
41799;SDS011;27468;47.460;19.034;2023-06-10T13:56:22;2.60;;;2.30;;
41799;SDS011;27468;47.460;19.034;2023-06-10T13:58:48;2.40;;;2.17;;
41799;SDS011;27468;47.460;19.034;2023-06-10T14:01:13;2.60;;;1.90;;
41799;SDS011;27468;47.460;19.034;2023-06-10T14:03:39;2.75;;;2.15;;
41799;SDS011;27468;47.460;19.034;2023-06-10T14:06:04;2.58;;;2.38;;
41799;SDS011;27468;47.460;19.034;2023-06-10T14:08:30;2.42;;;2.15;;
41799;SDS011;27468;47.460;19.034;2023-06-10T14:10:55;3.22;;;2.28;;
41799;SDS011;27468;47.460;19.034;2023-06-10T14:13:20;2.90;;;2.60;;
41799;SDS011;27468;47.460;19.034;2023-06-10T14:15:46;2.97;;;2.55;;
41799;SDS011;27468;47.460;19.034;2023-06-10T14:18:11;2.50;;;2.30;;
41799;SDS011;27468;47.460;19.034;2023-06-10T14:20:37;3.10;;;2.30;;
41799;SDS011;27468;47.460;19.034;2023-06-10T14:23:02;2.65;;;2.42;;
41799;SDS011;27468;47.460;19.034;2023-06-10T14:25:28;3.65;;;3.03;;
41799;SDS011;27468;47.460;19.034;2023-06-10T14:27:53;3.28;;;2.60;;
41799;SDS011;27468;47.460;19.034;2023-06-10T14:30:19;3.80;;;2.95;;
41799;SDS011;27468;47.460;19.034;2023-06-10T14:32:44;3.80;;;2.47;;
41799;SDS011;27468;47.460;19.034;2023-06-10T14:35:10;3.13;;;2.33;;
41799;SDS011;27468;47.460;19.034;2023-06-10T14:37:35;3.03;;;2.50;;
41799;SDS011;27468;47.460;19.034;2023-06-10T14:40:02;2.92;;;1.83;;
41799;SDS011;27468;47.460;19.034;2023-06-10T14:42:28;1.95;;;1.75;;
41799;SDS011;27468;47.460;19.034;2023-06-10T14:44:54;2.92;;;2.40;;
41799;SDS011;27468;47.460;19.034;2023-06-10T14:47:19;2.28;;;2.03;;